createdAt,value
2022-12-25T00:02:02.461Z,6.10
2022-12-25T00:04:30.293Z,6.20
2022-12-25T00:06:59.477Z,6.20
2022-12-25T00:09:27.361Z,6.20
2022-12-25T00:11:55.195Z,6.30
2022-12-25T00:14:24.454Z,6.30
2022-12-25T00:16:52.391Z,6.30
2022-12-25T00:19:20.218Z,6.20
2022-12-25T00:21:48.152Z,6.20
2022-12-25T00:24:15.950Z,6.10
2022-12-25T00:26:43.815Z,6.10
2022-12-25T00:29:14.475Z,6.10
2022-12-25T00:31:43.790Z,6.10
2022-12-25T00:34:11.831Z,6.10
2022-12-25T00:36:42.039Z,6.00
2022-12-25T00:39:10.991Z,6.00
2022-12-25T00:41:56.287Z,5.90
2022-12-25T00:44:24.188Z,5.90
2022-12-25T00:46:53.407Z,5.80
2022-12-25T00:49:23.578Z,5.80
2022-12-25T00:51:51.813Z,5.70
2022-12-25T00:54:19.906Z,5.70
2022-12-25T00:56:48.331Z,5.70
2022-12-25T00:59:16.393Z,5.60
2022-12-25T01:01:44.491Z,5.70
2022-12-25T01:04:14.310Z,5.60
2022-12-25T01:06:42.549Z,5.60
2022-12-25T01:09:28.312Z,5.50
2022-12-25T01:11:56.208Z,5.50
2022-12-25T01:14:24.069Z,5.50
2022-12-25T01:16:52.074Z,5.50
2022-12-25T01:19:21.308Z,5.40
2022-12-25T01:21:49.172Z,5.40
2022-12-25T01:24:17.138Z,5.40
2022-12-25T01:26:44.976Z,5.30
2022-12-25T01:29:12.807Z,5.30
2022-12-25T01:31:40.822Z,5.20
2022-12-25T01:34:08.771Z,5.20
2022-12-25T01:36:38.099Z,5.10
2022-12-25T01:39:06.122Z,5.00
2022-12-25T01:41:33.977Z,5.00
2022-12-25T01:44:05.669Z,5.00
2022-12-25T01:46:34.018Z,4.90
2022-12-25T01:49:05.379Z,4.80
2022-12-25T01:51:39.981Z,4.80
2022-12-25T01:54:13.420Z,4.80
2022-12-25T01:56:43.072Z,4.80
2022-12-25T01:59:14.672Z,4.80
2022-12-25T02:01:42.907Z,4.80
2022-12-25T02:04:38.397Z,4.80
2022-12-25T02:07:07.819Z,4.90
2022-12-25T02:09:38.197Z,4.90
2022-12-25T02:12:07.224Z,4.90
2022-12-25T02:14:37.854Z,4.90
2022-12-25T02:17:12.065Z,5.00
2022-12-25T02:20:03.647Z,5.00
2022-12-25T02:22:40.877Z,5.00
2022-12-25T02:25:22.889Z,5.10
2022-12-25T02:28:22.329Z,5.10
2022-12-25T02:30:54.377Z,5.10
2022-12-25T02:33:46.642Z,5.10
2022-12-25T02:36:21.366Z,5.20
2022-12-25T02:39:12.557Z,5.20
2022-12-25T02:41:44.658Z,5.30
2022-12-25T02:44:35.535Z,5.30
2022-12-25T02:47:23.055Z,5.40
2022-12-25T02:50:09.911Z,5.50
2022-12-25T02:52:55.376Z,5.50
2022-12-25T02:55:46.025Z,5.50
2022-12-25T02:58:34.065Z,5.60
2022-12-25T03:01:24.710Z,5.60
2022-12-25T03:04:14.375Z,5.60
2022-12-25T03:06:44.214Z,5.70
2022-12-25T03:09:36.395Z,5.70
2022-12-25T03:12:16.979Z,5.70
2022-12-25T03:15:03.062Z,5.70
2022-12-25T03:17:33.988Z,5.80
2022-12-25T03:20:19.765Z,5.80
2022-12-25T03:23:06.299Z,5.80
2022-12-25T03:26:00.499Z,5.90
2022-12-25T03:28:28.500Z,5.90
2022-12-25T03:31:13.157Z,5.90
2022-12-25T03:34:08.677Z,5.90
2022-12-25T03:36:47.153Z,5.90
2022-12-25T03:39:54.450Z,5.90
2022-12-25T03:42:43.119Z,5.90
2022-12-25T03:45:33.358Z,5.90
2022-12-25T03:48:19.347Z,5.90
2022-12-25T03:51:11.913Z,5.80
2022-12-25T03:54:01.403Z,5.80
2022-12-25T03:56:48.823Z,5.90
2022-12-25T03:59:38.100Z,5.80
2022-12-25T04:02:23.656Z,5.80
2022-12-25T04:05:09.409Z,5.80
2022-12-25T04:07:56.357Z,5.80
2022-12-25T04:10:41.690Z,5.70
2022-12-25T04:13:27.308Z,5.70
2022-12-25T04:16:13.159Z,5.70
2022-12-25T04:18:58.418Z,5.70
2022-12-25T04:21:44.088Z,5.70
2022-12-25T04:24:31.169Z,5.60
2022-12-25T04:27:16.403Z,5.60
2022-12-25T04:30:02.037Z,5.60
2022-12-25T04:32:47.357Z,5.70
2022-12-25T04:35:32.714Z,5.60
2022-12-25T04:38:00.600Z,5.60
2022-12-25T04:40:29.897Z,5.60
2022-12-25T04:42:57.797Z,5.60
2022-12-25T04:45:26.220Z,5.60
2022-12-25T04:47:54.169Z,5.60
2022-12-25T04:50:22.145Z,5.60
2022-12-25T04:52:50.030Z,5.60
2022-12-25T04:55:17.925Z,5.60
2022-12-25T04:57:47.144Z,5.50
2022-12-25T05:00:15.567Z,5.50
2022-12-25T05:02:43.562Z,5.40
2022-12-25T05:05:11.538Z,5.40
2022-12-25T05:07:39.411Z,5.30
2022-12-25T05:10:08.396Z,5.40
2022-12-25T05:12:36.302Z,5.40
2022-12-25T05:15:05.832Z,5.50
2022-12-25T05:17:33.810Z,5.50
2022-12-25T05:20:01.762Z,5.50
2022-12-25T05:22:29.708Z,5.50
2022-12-25T05:24:57.594Z,5.50
2022-12-25T05:27:25.544Z,5.50
2022-12-25T05:29:53.495Z,5.50
2022-12-25T05:32:22.669Z,5.40
2022-12-25T05:34:50.437Z,5.40
2022-12-25T05:37:18.333Z,5.40
2022-12-25T05:39:46.179Z,5.50
2022-12-25T05:42:14.053Z,5.50
2022-12-25T05:44:42.021Z,5.60
2022-12-25T05:47:09.877Z,5.60
2022-12-25T05:49:39.086Z,5.70
2022-12-25T05:52:06.952Z,5.70
2022-12-25T05:54:35.735Z,5.70
2022-12-25T05:57:04.026Z,5.70
2022-12-25T05:59:32.470Z,5.70
2022-12-25T06:02:01.133Z,5.70
2022-12-25T06:04:29.279Z,5.70
2022-12-25T06:06:58.519Z,5.70
2022-12-25T06:09:26.470Z,5.80
2022-12-25T06:11:54.283Z,5.70
2022-12-25T06:14:22.206Z,5.80
2022-12-25T06:16:52.757Z,5.80
2022-12-25T06:19:21.011Z,5.80
2022-12-25T06:21:49.302Z,5.90
2022-12-25T06:24:21.410Z,5.90
2022-12-25T06:26:49.703Z,5.90
2022-12-25T06:29:18.052Z,5.90
2022-12-25T06:31:46.018Z,5.90
2022-12-25T06:34:16.338Z,5.90
2022-12-25T06:36:44.267Z,6.00
2022-12-25T06:39:12.110Z,5.90
2022-12-25T06:41:41.316Z,6.00
2022-12-25T06:44:10.321Z,6.00
2022-12-25T06:46:38.252Z,6.00
2022-12-25T06:49:06.071Z,6.00
2022-12-25T06:51:34.907Z,6.00
2022-12-25T06:54:04.159Z,6.00
2022-12-25T06:56:33.700Z,6.10
2022-12-25T06:59:04.882Z,6.10
2022-12-25T07:01:36.256Z,6.10
2022-12-25T07:04:06.636Z,6.10
2022-12-25T07:06:35.058Z,6.10
2022-12-25T07:09:02.922Z,6.20
2022-12-25T07:11:30.775Z,6.10
2022-12-25T07:13:58.605Z,6.20
2022-12-25T07:16:27.896Z,6.20
2022-12-25T07:18:55.805Z,6.20
2022-12-25T07:21:23.815Z,6.20
2022-12-25T07:23:51.924Z,6.20
2022-12-25T07:26:20.876Z,6.20
2022-12-25T07:28:48.680Z,6.20
2022-12-25T07:31:18.204Z,6.20
2022-12-25T07:33:47.485Z,6.20
2022-12-25T07:36:16.265Z,6.10
2022-12-25T07:38:44.826Z,6.20
2022-12-25T07:41:13.784Z,6.20
2022-12-25T07:43:41.769Z,6.20
2022-12-25T07:46:10.655Z,6.30
2022-12-25T07:48:38.843Z,6.30
2022-12-25T07:51:11.633Z,6.30
2022-12-25T07:53:41.734Z,6.30
2022-12-25T07:56:13.002Z,6.30
2022-12-25T07:58:41.608Z,6.30
2022-12-25T08:01:12.497Z,6.30
2022-12-25T08:03:40.903Z,6.30
2022-12-25T08:06:12.084Z,6.30
2022-12-25T08:08:41.599Z,6.30
2022-12-25T08:11:10.669Z,6.30
2022-12-25T08:13:39.218Z,6.30
2022-12-25T08:16:09.811Z,6.30
2022-12-25T08:18:38.670Z,6.30
2022-12-25T08:21:08.574Z,6.40
2022-12-25T08:23:39.592Z,6.40
2022-12-25T08:26:09.013Z,6.40
2022-12-25T08:28:36.871Z,6.50
2022-12-25T08:31:09.607Z,6.50
2022-12-25T08:33:38.121Z,6.60
2022-12-25T08:36:07.962Z,6.70
2022-12-25T08:38:37.866Z,6.70
2022-12-25T08:41:05.970Z,6.80
2022-12-25T08:43:33.811Z,6.80
2022-12-25T08:46:01.767Z,6.80
2022-12-25T08:48:30.019Z,6.80
2022-12-25T08:50:58.157Z,6.80
2022-12-25T08:53:26.396Z,6.80
2022-12-25T08:55:59.768Z,6.80
2022-12-25T08:58:28.568Z,6.80
2022-12-25T09:00:56.958Z,6.80
2022-12-25T09:03:25.368Z,6.80
2022-12-25T09:05:53.974Z,6.80
2022-12-25T09:08:22.755Z,6.80
2022-12-25T09:10:50.791Z,6.80
2022-12-25T09:13:20.044Z,6.90
2022-12-25T09:15:47.886Z,6.80
2022-12-25T09:18:15.761Z,6.90
2022-12-25T09:20:43.651Z,6.90
2022-12-25T09:23:13.991Z,6.90
2022-12-25T09:25:42.477Z,6.90
2022-12-25T09:28:10.327Z,7.00
2022-12-25T09:30:39.677Z,7.00
2022-12-25T09:33:07.563Z,7.00
2022-12-25T09:35:35.441Z,7.00
2022-12-25T09:38:03.356Z,7.00
2022-12-25T09:40:33.168Z,7.00
2022-12-25T09:43:02.493Z,7.00
2022-12-25T09:45:34.876Z,7.00
2022-12-25T09:48:04.969Z,7.00
2022-12-25T09:50:40.990Z,7.00
2022-12-25T09:53:13.821Z,7.00
2022-12-25T09:55:47.409Z,7.00
2022-12-25T09:58:15.535Z,7.10
2022-12-25T10:00:48.594Z,7.00
2022-12-25T10:03:34.452Z,7.10
2022-12-25T10:06:18.353Z,7.00
2022-12-25T10:09:19.772Z,7.00
2022-12-25T10:11:58.843Z,7.10
2022-12-25T10:14:35.013Z,7.10
2022-12-25T10:17:21.132Z,7.10
2022-12-25T10:19:57.221Z,7.10
2022-12-25T10:22:30.896Z,7.10
2022-12-25T10:25:00.339Z,7.10
2022-12-25T10:27:33.840Z,7.20
2022-12-25T10:30:06.570Z,7.20
2022-12-25T10:32:34.661Z,7.10
2022-12-25T10:35:04.464Z,7.20
2022-12-25T10:37:32.397Z,7.20
2022-12-25T10:40:00.315Z,7.20
2022-12-25T10:42:40.025Z,7.30
2022-12-25T10:45:09.700Z,7.30
2022-12-25T10:47:42.377Z,7.40
2022-12-25T10:50:19.880Z,7.40
2022-12-25T10:52:57.294Z,7.50
2022-12-25T10:55:29.256Z,7.50
2022-12-25T10:57:58.591Z,7.60
2022-12-25T11:00:28.690Z,7.80
2022-12-25T11:02:57.173Z,7.80
2022-12-25T11:05:29.372Z,7.70
2022-12-25T11:07:59.359Z,7.70
2022-12-25T11:10:31.110Z,7.60
2022-12-25T11:13:00.281Z,7.70
2022-12-25T11:15:35.806Z,7.70
2022-12-25T11:18:03.970Z,7.70
2022-12-25T11:20:33.304Z,7.70
2022-12-25T11:23:01.245Z,7.70
2022-12-25T11:25:29.684Z,7.70
2022-12-25T11:27:59.340Z,7.80
2022-12-25T11:30:28.615Z,7.80
2022-12-25T11:32:59.677Z,7.80
2022-12-25T11:35:37.029Z,7.80
2022-12-25T11:38:06.052Z,7.80
2022-12-25T11:40:41.047Z,7.80
2022-12-25T11:43:13.924Z,7.80
2022-12-25T11:45:47.177Z,7.80
2022-12-25T11:48:18.935Z,7.80
2022-12-25T11:50:52.679Z,7.80
2022-12-25T11:53:23.967Z,7.80
2022-12-25T11:55:55.339Z,7.80
2022-12-25T11:58:29.114Z,7.80
2022-12-25T12:00:59.033Z,7.80
2022-12-25T12:03:31.386Z,7.80
2022-12-25T12:06:05.822Z,7.80
2022-12-25T12:08:35.453Z,7.80
2022-12-25T12:11:19.235Z,7.80
2022-12-25T12:13:58.085Z,7.80
2022-12-25T12:16:26.215Z,7.80
2022-12-25T12:18:54.423Z,7.80
2022-12-25T12:21:26.934Z,7.80
2022-12-25T12:24:02.204Z,7.80
2022-12-25T12:26:32.290Z,7.80
2022-12-25T12:29:02.180Z,7.90
2022-12-25T12:31:40.911Z,7.80
2022-12-25T12:34:21.560Z,7.90
2022-12-25T12:36:52.062Z,7.90
2022-12-25T12:39:25.343Z,7.90
2022-12-25T12:41:53.813Z,7.90
2022-12-25T12:44:27.256Z,7.90
2022-12-25T12:46:57.633Z,7.80
2022-12-25T12:49:27.597Z,7.80
2022-12-25T12:52:07.317Z,7.90
2022-12-25T12:54:54.703Z,7.90
2022-12-25T12:57:25.508Z,7.90
2022-12-25T12:59:53.553Z,7.90
2022-12-25T13:02:57.607Z,7.90
2022-12-25T13:05:35.663Z,7.90
2022-12-25T13:08:18.226Z,7.80
2022-12-25T13:10:49.873Z,7.90
2022-12-25T13:13:22.983Z,7.90
2022-12-25T13:15:52.676Z,7.90
2022-12-25T13:18:21.828Z,7.90
2022-12-25T13:20:56.052Z,7.90
2022-12-25T13:23:28.820Z,7.90
2022-12-25T13:25:58.255Z,7.90
2022-12-25T13:28:28.309Z,7.90
2022-12-25T13:31:03.399Z,7.90
2022-12-25T13:33:31.499Z,8.00
2022-12-25T13:35:59.507Z,8.00
2022-12-25T13:38:29.956Z,7.90
2022-12-25T13:41:16.810Z,8.00
2022-12-25T13:43:46.262Z,8.00
2022-12-25T13:46:15.708Z,8.00
2022-12-25T13:48:44.258Z,8.00
2022-12-25T13:51:16.832Z,8.00
2022-12-25T13:53:46.073Z,8.10
2022-12-25T13:56:16.099Z,8.00
2022-12-25T13:58:44.587Z,8.10
2022-12-25T14:01:18.458Z,8.10
2022-12-25T14:03:48.509Z,8.10
2022-12-25T14:06:19.700Z,8.10
2022-12-25T14:08:49.708Z,8.10
2022-12-25T14:11:21.526Z,8.10
2022-12-25T14:13:52.799Z,8.20
2022-12-25T14:16:21.926Z,8.20
2022-12-25T14:18:55.105Z,8.20
2022-12-25T14:21:27.796Z,8.20
2022-12-25T14:23:57.323Z,8.20
2022-12-25T14:26:28.266Z,8.20
2022-12-25T14:29:12.188Z,8.10
2022-12-25T14:31:44.917Z,8.10
2022-12-25T14:34:17.005Z,8.10
2022-12-25T14:36:44.960Z,8.10
2022-12-25T14:39:30.690Z,8.10
2022-12-25T14:41:58.974Z,8.10
2022-12-25T14:44:32.997Z,8.10
2022-12-25T14:47:22.033Z,8.20
2022-12-25T14:49:50.382Z,8.20
2022-12-25T14:52:21.265Z,8.10
2022-12-25T14:54:53.424Z,8.10
2022-12-25T14:57:27.996Z,8.10
2022-12-25T15:00:01.962Z,8.10
2022-12-25T15:02:38.706Z,8.00
2022-12-25T15:05:07.687Z,8.00
2022-12-25T15:07:35.556Z,8.00
2022-12-25T15:10:57.583Z,8.00
2022-12-25T15:12:58.031Z,8.00
2022-12-25T15:15:25.944Z,7.90
2022-12-25T15:17:54.567Z,7.90
2022-12-25T15:20:25.070Z,7.90
2022-12-25T15:23:18.507Z,7.90
2022-12-25T15:25:42.546Z,7.90
2022-12-25T15:28:13.110Z,7.80
2022-12-25T15:30:41.566Z,7.80
2022-12-25T15:33:14.531Z,7.80
2022-12-25T15:35:44.114Z,7.80
2022-12-25T15:38:12.572Z,7.70
2022-12-25T15:40:42.959Z,7.70
2022-12-25T15:43:39.005Z,7.70
2022-12-25T15:46:02.042Z,7.70
2022-12-25T15:48:29.894Z,7.70
2022-12-25T15:50:57.855Z,7.70
2022-12-25T15:53:26.905Z,7.70
2022-12-25T15:55:56.417Z,7.70
2022-12-25T15:58:24.311Z,7.70
2022-12-25T16:00:52.397Z,7.70
2022-12-25T16:03:20.248Z,7.70
2022-12-25T16:05:48.463Z,7.70
2022-12-25T16:08:16.515Z,7.60
2022-12-25T16:10:44.389Z,7.60
2022-12-25T16:13:13.634Z,7.60
2022-12-25T16:15:41.617Z,7.60
2022-12-25T16:18:11.529Z,7.60
2022-12-25T16:20:39.348Z,7.60
2022-12-25T16:23:07.188Z,7.60
2022-12-25T16:25:35.048Z,7.60
2022-12-25T16:28:03.581Z,7.60
2022-12-25T16:30:33.043Z,7.50
2022-12-25T16:33:01.046Z,7.60
2022-12-25T16:35:28.905Z,7.50
2022-12-25T16:37:56.898Z,7.50
2022-12-25T16:40:24.728Z,7.50
2022-12-25T16:42:52.700Z,7.50
2022-12-25T16:45:20.500Z,7.50
2022-12-25T16:47:49.772Z,7.50
2022-12-25T16:50:17.762Z,7.50
2022-12-25T16:52:45.622Z,7.50
2022-12-25T16:55:13.506Z,7.50
2022-12-25T16:57:41.392Z,7.50
2022-12-25T17:00:11.555Z,7.50
2022-12-25T17:02:39.642Z,7.50
2022-12-25T17:05:09.877Z,7.50
2022-12-25T17:07:38.304Z,7.50
2022-12-25T17:10:07.479Z,7.50
2022-12-25T17:12:35.379Z,7.50
2022-12-25T17:15:03.218Z,7.50
2022-12-25T17:17:31.109Z,7.50
2022-12-25T17:19:58.899Z,7.50
2022-12-25T17:22:28.177Z,7.50
2022-12-25T17:24:56.065Z,7.50
2022-12-25T17:27:24.019Z,7.60
2022-12-25T17:29:51.864Z,7.60
2022-12-25T17:32:19.877Z,7.60
2022-12-25T17:34:48.205Z,7.60
2022-12-25T17:37:16.050Z,7.60
2022-12-25T17:39:45.286Z,7.60
2022-12-25T17:42:13.231Z,7.60
2022-12-25T17:44:41.050Z,7.60
2022-12-25T17:47:09.338Z,7.60
2022-12-25T17:49:37.457Z,7.60
2022-12-25T17:52:05.625Z,7.60
2022-12-25T17:54:33.617Z,7.70
2022-12-25T17:57:02.867Z,7.60
2022-12-25T17:59:30.746Z,7.60
2022-12-25T18:01:58.792Z,7.60
2022-12-25T18:04:26.686Z,7.70
2022-12-25T18:06:54.651Z,7.70
2022-12-25T18:09:22.736Z,7.70
2022-12-25T18:11:50.523Z,7.70
2022-12-25T18:14:20.335Z,7.70
2022-12-25T18:16:48.793Z,7.70
2022-12-25T18:19:18.205Z,7.70
2022-12-25T18:21:46.202Z,7.70
2022-12-25T18:24:14.129Z,7.70
2022-12-25T18:26:42.115Z,7.70
2022-12-25T18:29:10.055Z,7.70
2022-12-25T18:31:39.233Z,7.70
2022-12-25T18:34:07.165Z,7.70
2022-12-25T18:36:35.081Z,7.70
2022-12-25T18:39:02.882Z,7.70
2022-12-25T18:41:30.800Z,7.70
2022-12-25T18:44:00.643Z,7.70
2022-12-25T18:46:28.672Z,7.70
2022-12-25T18:48:58.568Z,7.70
2022-12-25T18:51:34.748Z,7.70
2022-12-25T18:54:04.853Z,7.70
2022-12-25T18:56:32.745Z,7.80
2022-12-25T18:59:01.385Z,7.80
2022-12-25T19:01:29.475Z,7.80
2022-12-25T19:04:04.485Z,7.70
2022-12-25T19:06:33.917Z,7.70
2022-12-25T19:09:09.157Z,7.70
2022-12-25T19:11:41.972Z,7.80
2022-12-25T19:14:13.756Z,7.80
2022-12-25T19:16:42.171Z,7.80
2022-12-25T19:19:11.456Z,7.80
2022-12-25T19:21:39.310Z,7.80
2022-12-25T19:24:07.669Z,7.80
2022-12-25T19:26:36.109Z,7.80
2022-12-25T19:29:04.278Z,7.70
2022-12-25T19:31:32.156Z,7.70
2022-12-25T19:34:00.045Z,7.70
2022-12-25T19:36:29.357Z,7.80
2022-12-25T19:38:57.279Z,7.70
2022-12-25T19:41:25.139Z,7.80
2022-12-25T19:43:53.564Z,7.70
2022-12-25T19:46:24.254Z,7.80
2022-12-25T19:48:52.549Z,7.70
2022-12-25T19:51:24.514Z,7.70
2022-12-25T19:53:56.061Z,7.70
2022-12-25T19:56:24.155Z,7.70
2022-12-25T19:58:52.136Z,7.70
2022-12-25T20:01:22.644Z,7.70
2022-12-25T20:03:51.171Z,7.70
2022-12-25T20:06:23.069Z,7.70
2022-12-25T20:08:53.879Z,7.70
2022-12-25T20:11:22.594Z,7.70
2022-12-25T20:13:50.609Z,7.70
2022-12-25T20:16:18.658Z,7.70
2022-12-25T20:18:46.510Z,7.70
2022-12-25T20:21:15.875Z,7.70
2022-12-25T20:23:44.981Z,7.70
2022-12-25T20:26:14.938Z,7.60
2022-12-25T20:28:43.823Z,7.60
2022-12-25T20:31:15.553Z,7.60
2022-12-25T20:33:43.556Z,7.60
2022-12-25T20:36:12.671Z,7.70
2022-12-25T20:38:41.442Z,7.70
2022-12-25T20:41:28.444Z,7.60
2022-12-25T20:43:58.449Z,7.60
2022-12-25T20:46:26.961Z,7.60
2022-12-25T20:48:54.951Z,7.60
2022-12-25T20:51:25.061Z,7.70
2022-12-25T20:53:53.735Z,7.70
2022-12-25T20:56:23.227Z,7.70
2022-12-25T20:58:54.286Z,7.70
2022-12-25T21:01:23.791Z,7.60
2022-12-25T21:03:52.474Z,7.70
2022-12-25T21:06:20.446Z,7.70
2022-12-25T21:08:48.445Z,7.70
2022-12-25T21:11:17.435Z,7.70
2022-12-25T21:13:46.643Z,7.60
2022-12-25T21:16:16.967Z,7.70
2022-12-25T21:18:46.510Z,7.60
2022-12-25T21:21:14.595Z,7.70
2022-12-25T21:23:42.963Z,7.70
2022-12-25T21:26:12.643Z,7.70
2022-12-25T21:28:40.597Z,7.70
2022-12-25T21:31:09.325Z,7.70
2022-12-25T21:33:51.313Z,7.70
2022-12-25T21:36:23.778Z,7.70
2022-12-25T21:38:56.603Z,7.70
2022-12-25T21:41:25.709Z,7.70
2022-12-25T21:43:54.877Z,7.70
2022-12-25T21:46:23.078Z,7.70
2022-12-25T21:48:51.220Z,7.70
2022-12-25T21:51:40.919Z,7.60
2022-12-25T21:54:09.468Z,7.60
2022-12-25T21:56:43.841Z,7.60
2022-12-25T21:59:15.646Z,7.70
2022-12-25T22:01:44.099Z,7.70
2022-12-25T22:04:12.820Z,7.70
2022-12-25T22:07:00.177Z,7.70
2022-12-25T22:09:28.205Z,7.70
2022-12-25T22:12:13.736Z,7.70
2022-12-25T22:14:54.659Z,7.70
2022-12-25T22:17:43.268Z,7.70
2022-12-25T22:20:13.364Z,7.70
2022-12-25T22:22:42.683Z,7.70
2022-12-25T22:25:11.063Z,7.70
2022-12-25T22:27:40.373Z,7.70
2022-12-25T22:30:11.986Z,7.70
2022-12-25T22:32:40.032Z,7.60
2022-12-25T22:35:09.073Z,7.60
2022-12-25T22:37:38.992Z,7.60
2022-12-25T22:40:11.156Z,7.70
2022-12-25T22:42:39.099Z,7.60
2022-12-25T22:45:07.895Z,7.60
2022-12-25T22:47:35.887Z,7.60
2022-12-25T22:50:03.764Z,7.60
2022-12-25T22:52:31.637Z,7.60
2022-12-25T22:54:59.509Z,7.60
2022-12-25T22:57:29.123Z,7.60
2022-12-25T22:59:57.055Z,7.60
2022-12-25T23:02:25.027Z,7.60
2022-12-25T23:04:54.293Z,7.60
2022-12-25T23:07:22.279Z,7.60
2022-12-25T23:09:50.431Z,7.50
2022-12-25T23:12:35.793Z,7.60
2022-12-25T23:15:05.846Z,7.60
2022-12-25T23:17:51.347Z,7.60
2022-12-25T23:20:36.634Z,7.60
2022-12-25T23:23:22.054Z,7.60
2022-12-25T23:26:08.412Z,7.50
2022-12-25T23:28:54.694Z,7.50
2022-12-25T23:31:29.290Z,7.50
2022-12-25T23:33:57.667Z,7.50
2022-12-25T23:36:25.569Z,7.50
2022-12-25T23:38:53.473Z,7.50
2022-12-25T23:41:22.292Z,7.50
2022-12-25T23:43:50.160Z,7.50
2022-12-25T23:46:18.193Z,7.50
2022-12-25T23:48:47.426Z,7.60
2022-12-25T23:51:15.312Z,7.60
2022-12-25T23:53:43.175Z,7.50
2022-12-25T23:56:11.245Z,7.60
2022-12-25T23:58:39.462Z,7.60
